createdAt,value
2022-10-22T20:20:55.156Z,15.20
2022-10-22T20:23:22.417Z,13.96
2022-10-22T20:25:49.499Z,13.99
2022-10-22T20:28:16.885Z,13.71
2022-10-22T20:30:45.997Z,13.39
2022-10-22T20:33:15.245Z,13.26
2022-10-22T20:35:42.623Z,13.42
2022-10-22T20:38:14.976Z,13.28
2022-10-22T20:40:42.414Z,13.28
2022-10-22T20:43:12.302Z,13.31
2022-10-22T20:45:40.094Z,13.37
2022-10-22T20:48:08.072Z,13.43
2022-10-22T20:50:35.532Z,13.37
2022-10-22T20:53:03.048Z,13.44
2022-10-22T20:55:30.297Z,13.35
2022-10-22T20:57:59.133Z,13.42
2022-10-22T21:00:27.617Z,13.31
2022-10-22T21:02:54.918Z,13.41
2022-10-22T21:05:22.274Z,13.37
2022-10-22T21:07:49.525Z,13.35
2022-10-22T21:10:16.638Z,13.37
2022-10-22T21:12:44.400Z,13.39
2022-10-22T21:15:12.781Z,13.44
2022-10-22T21:17:40.885Z,13.54
2022-10-22T21:20:08.281Z,13.48
2022-10-22T21:22:35.348Z,13.45
2022-10-22T21:25:03.976Z,13.53
2022-10-22T21:27:30.926Z,13.49
2022-10-22T21:29:57.831Z,13.48
2022-10-22T21:32:26.614Z,13.41
2022-10-22T21:34:53.578Z,13.41
2022-10-22T21:37:22.962Z,13.40
2022-10-22T21:39:49.869Z,13.41
2022-10-22T21:42:16.874Z,13.39
2022-10-22T21:44:43.839Z,13.43
2022-10-22T21:47:10.963Z,13.36
2022-10-22T21:49:37.923Z,13.43
2022-10-22T21:52:07.208Z,13.44
2022-10-22T21:54:35.992Z,13.55
2022-10-22T21:57:03.471Z,13.62
2022-10-22T21:59:32.505Z,13.50
2022-10-22T22:02:04.763Z,13.50
2022-10-22T22:04:33.043Z,13.54
2022-10-22T22:07:00.038Z,13.49
2022-10-22T22:09:27.068Z,13.52
2022-10-22T22:11:54.152Z,13.53
2022-10-22T22:14:21.080Z,13.55
2022-10-22T22:16:48.015Z,13.56
2022-10-22T22:19:14.966Z,13.55
2022-10-22T22:21:41.949Z,13.47
2022-10-22T22:24:12.934Z,13.54
2022-10-22T22:26:40.420Z,13.63
2022-10-22T22:29:07.473Z,13.55
2022-10-22T22:31:35.953Z,13.57
2022-10-22T22:34:10.296Z,13.55
2022-10-22T22:36:39.802Z,13.49
2022-10-22T22:39:10.668Z,13.54
2022-10-22T22:41:37.591Z,13.56
2022-10-22T22:44:04.759Z,13.67
2022-10-22T22:46:31.783Z,13.53
2022-10-22T22:48:58.887Z,13.53
2022-10-22T22:51:25.802Z,13.42
2022-10-22T22:53:52.787Z,13.42
2022-10-22T22:56:22.826Z,13.35
2022-10-22T22:58:50.587Z,13.46
2022-10-22T23:01:23.630Z,13.48
2022-10-22T23:04:13.786Z,13.42
2022-10-22T23:06:41.028Z,13.37
2022-10-22T23:09:10.448Z,13.41
2022-10-22T23:11:38.718Z,13.38
2022-10-22T23:14:07.708Z,13.39
2022-10-22T23:16:37.547Z,13.33
2022-10-22T23:19:05.077Z,13.39
2022-10-22T23:21:35.530Z,13.28
2022-10-22T23:24:08.302Z,13.32
2022-10-22T23:26:38.747Z,13.17
2022-10-22T23:29:10.487Z,13.20
2022-10-22T23:31:37.687Z,13.24
2022-10-22T23:34:06.187Z,13.22
2022-10-22T23:36:35.261Z,13.24
2022-10-22T23:39:08.907Z,13.16
2022-10-22T23:41:36.424Z,13.22
2022-10-22T23:44:04.591Z,13.18
2022-10-22T23:46:31.582Z,13.21
2022-10-22T23:48:58.693Z,13.25
2022-10-22T23:51:25.936Z,13.21
2022-10-22T23:53:58.478Z,13.14
2022-10-22T23:56:26.928Z,13.13
2022-10-22T23:58:54.593Z,13.15
